sensor_id;sensor_type;location;lat;lon;timestamp;P1;durP1;ratioP1;P2;durP2;ratioP2
140;SDS011;65;48.778;9.160;2023-07-20T00:00:55;5.05;;;2.53;;
140;SDS011;65;48.778;9.160;2023-07-20T00:03:41;4.53;;;2.35;;
140;SDS011;65;48.778;9.160;2023-07-20T00:06:27;5.88;;;2.90;;
140;SDS011;65;48.778;9.160;2023-07-20T00:09:13;6.22;;;2.67;;
140;SDS011;65;48.778;9.160;2023-07-20T00:11:58;7.07;;;2.70;;
140;SDS011;65;48.778;9.160;2023-07-20T00:14:45;4.53;;;2.33;;
140;SDS011;65;48.778;9.160;2023-07-20T00:17:31;6.40;;;2.50;;
140;SDS011;65;48.778;9.160;2023-07-20T00:20:17;4.72;;;2.22;;
140;SDS011;65;48.778;9.160;2023-07-20T00:23:03;5.28;;;2.30;;
140;SDS011;65;48.778;9.160;2023-07-20T00:25:49;5.25;;;2.55;;
140;SDS011;65;48.778;9.160;2023-07-20T00:28:34;4.88;;;2.20;;
140;SDS011;65;48.778;9.160;2023-07-20T00:31:20;4.97;;;2.65;;
140;SDS011;65;48.778;9.160;2023-07-20T00:34:06;4.93;;;2.40;;
140;SDS011;65;48.778;9.160;2023-07-20T00:36:52;5.90;;;2.50;;
140;SDS011;65;48.778;9.160;2023-07-20T00:39:38;4.50;;;2.35;;
140;SDS011;65;48.778;9.160;2023-07-20T00:42:24;5.93;;;2.35;;
140;SDS011;65;48.778;9.160;2023-07-20T00:45:09;6.72;;;2.45;;
140;SDS011;65;48.778;9.160;2023-07-20T00:47:55;4.82;;;2.55;;
140;SDS011;65;48.778;9.160;2023-07-20T00:50:42;4.25;;;2.20;;
140;SDS011;65;48.778;9.160;2023-07-20T00:53:29;5.60;;;2.30;;
140;SDS011;65;48.778;9.160;2023-07-20T00:59:25;6.40;;;2.53;;
140;SDS011;65;48.778;9.160;2023-07-20T01:02:11;5.72;;;2.38;;
140;SDS011;65;48.778;9.160;2023-07-20T01:04:56;4.57;;;2.20;;
140;SDS011;65;48.778;9.160;2023-07-20T01:07:44;5.63;;;2.40;;
140;SDS011;65;48.778;9.160;2023-07-20T01:10:40;6.63;;;2.65;;
140;SDS011;65;48.778;9.160;2023-07-20T01:13:31;5.65;;;2.42;;
140;SDS011;65;48.778;9.160;2023-07-20T01:16:18;4.55;;;2.42;;
140;SDS011;65;48.778;9.160;2023-07-20T01:19:04;5.95;;;2.38;;
140;SDS011;65;48.778;9.160;2023-07-20T01:21:55;5.30;;;2.38;;
140;SDS011;65;48.778;9.160;2023-07-20T01:30:59;4.90;;;2.38;;
140;SDS011;65;48.778;9.160;2023-07-20T01:34:06;6.03;;;2.50;;
140;SDS011;65;48.778;9.160;2023-07-20T01:36:55;4.72;;;2.40;;
140;SDS011;65;48.778;9.160;2023-07-20T01:39:42;5.80;;;2.75;;
140;SDS011;65;48.778;9.160;2023-07-20T01:42:28;5.68;;;2.72;;
140;SDS011;65;48.778;9.160;2023-07-20T01:45:14;4.82;;;2.50;;
140;SDS011;65;48.778;9.160;2023-07-20T01:48:00;6.72;;;2.70;;
140;SDS011;65;48.778;9.160;2023-07-20T01:50:45;6.47;;;2.58;;
140;SDS011;65;48.778;9.160;2023-07-20T01:53:31;6.32;;;2.47;;
140;SDS011;65;48.778;9.160;2023-07-20T01:56:17;4.70;;;2.63;;
140;SDS011;65;48.778;9.160;2023-07-20T01:59:02;5.43;;;2.50;;
140;SDS011;65;48.778;9.160;2023-07-20T02:01:48;5.47;;;2.67;;
140;SDS011;65;48.778;9.160;2023-07-20T02:04:34;5.35;;;2.75;;
140;SDS011;65;48.778;9.160;2023-07-20T02:07:20;4.80;;;2.58;;
140;SDS011;65;48.778;9.160;2023-07-20T02:10:05;5.80;;;2.67;;
140;SDS011;65;48.778;9.160;2023-07-20T02:12:51;5.47;;;2.53;;
140;SDS011;65;48.778;9.160;2023-07-20T02:15:37;5.20;;;2.67;;
140;SDS011;65;48.778;9.160;2023-07-20T02:18:23;5.70;;;2.72;;
140;SDS011;65;48.778;9.160;2023-07-20T02:21:09;7.78;;;2.70;;
140;SDS011;65;48.778;9.160;2023-07-20T02:23:55;5.03;;;2.63;;
140;SDS011;65;48.778;9.160;2023-07-20T02:26:40;5.43;;;2.50;;
140;SDS011;65;48.778;9.160;2023-07-20T02:29:26;5.68;;;2.70;;
140;SDS011;65;48.778;9.160;2023-07-20T02:32:12;7.30;;;2.83;;
140;SDS011;65;48.778;9.160;2023-07-20T02:34:57;7.55;;;2.60;;
140;SDS011;65;48.778;9.160;2023-07-20T02:37:44;3.83;;;2.28;;
140;SDS011;65;48.778;9.160;2023-07-20T02:40:30;5.55;;;2.20;;
140;SDS011;65;48.778;9.160;2023-07-20T02:43:15;6.88;;;2.80;;
140;SDS011;65;48.778;9.160;2023-07-20T02:46:01;3.78;;;2.60;;
140;SDS011;65;48.778;9.160;2023-07-20T02:48:47;5.88;;;2.63;;
140;SDS011;65;48.778;9.160;2023-07-20T02:51:38;5.75;;;2.88;;
140;SDS011;65;48.778;9.160;2023-07-20T02:54:24;7.75;;;2.83;;
140;SDS011;65;48.778;9.160;2023-07-20T02:57:09;4.78;;;2.70;;
140;SDS011;65;48.778;9.160;2023-07-20T02:59:55;5.80;;;2.55;;
140;SDS011;65;48.778;9.160;2023-07-20T03:02:41;6.13;;;2.72;;
140;SDS011;65;48.778;9.160;2023-07-20T03:05:27;5.88;;;2.90;;
140;SDS011;65;48.778;9.160;2023-07-20T03:08:13;5.93;;;2.78;;
140;SDS011;65;48.778;9.160;2023-07-20T03:10:59;6.32;;;2.83;;
140;SDS011;65;48.778;9.160;2023-07-20T03:13:44;7.18;;;2.60;;
140;SDS011;65;48.778;9.160;2023-07-20T03:16:30;5.40;;;2.42;;
140;SDS011;65;48.778;9.160;2023-07-20T03:19:18;6.25;;;2.88;;
140;SDS011;65;48.778;9.160;2023-07-20T03:22:04;5.50;;;2.58;;
140;SDS011;65;48.778;9.160;2023-07-20T03:24:49;5.60;;;2.70;;
140;SDS011;65;48.778;9.160;2023-07-20T03:27:35;6.18;;;2.50;;
140;SDS011;65;48.778;9.160;2023-07-20T03:30:21;5.68;;;2.45;;
140;SDS011;65;48.778;9.160;2023-07-20T03:33:07;6.80;;;2.90;;
140;SDS011;65;48.778;9.160;2023-07-20T03:35:52;6.00;;;2.83;;
140;SDS011;65;48.778;9.160;2023-07-20T03:38:39;7.13;;;2.55;;
140;SDS011;65;48.778;9.160;2023-07-20T03:41:27;7.68;;;2.85;;
140;SDS011;65;48.778;9.160;2023-07-20T03:44:22;5.20;;;2.13;;
140;SDS011;65;48.778;9.160;2023-07-20T03:47:08;7.05;;;2.67;;
140;SDS011;65;48.778;9.160;2023-07-20T03:49:54;6.88;;;2.58;;
140;SDS011;65;48.778;9.160;2023-07-20T03:52:40;7.88;;;2.85;;
140;SDS011;65;48.778;9.160;2023-07-20T03:55:25;6.07;;;2.72;;
140;SDS011;65;48.778;9.160;2023-07-20T03:58:12;5.50;;;2.42;;
140;SDS011;65;48.778;9.160;2023-07-20T04:00:58;6.07;;;2.40;;
140;SDS011;65;48.778;9.160;2023-07-20T04:03:44;9.32;;;2.42;;
140;SDS011;65;48.778;9.160;2023-07-20T04:06:30;4.55;;;2.67;;
140;SDS011;65;48.778;9.160;2023-07-20T04:09:16;4.57;;;2.22;;
140;SDS011;65;48.778;9.160;2023-07-20T04:12:01;6.10;;;2.65;;
140;SDS011;65;48.778;9.160;2023-07-20T04:14:47;5.07;;;2.63;;
140;SDS011;65;48.778;9.160;2023-07-20T04:17:33;5.00;;;2.67;;
140;SDS011;65;48.778;9.160;2023-07-20T04:20:18;6.90;;;2.60;;
140;SDS011;65;48.778;9.160;2023-07-20T04:23:04;6.15;;;2.58;;
140;SDS011;65;48.778;9.160;2023-07-20T04:25:50;3.70;;;2.20;;
140;SDS011;65;48.778;9.160;2023-07-20T04:28:37;6.10;;;2.63;;
140;SDS011;65;48.778;9.160;2023-07-20T04:31:22;6.60;;;2.70;;
140;SDS011;65;48.778;9.160;2023-07-20T04:34:08;4.57;;;2.35;;
140;SDS011;65;48.778;9.160;2023-07-20T04:36:54;4.50;;;2.30;;
140;SDS011;65;48.778;9.160;2023-07-20T04:39:39;5.45;;;2.50;;
140;SDS011;65;48.778;9.160;2023-07-20T04:42:25;5.43;;;2.63;;
140;SDS011;65;48.778;9.160;2023-07-20T04:45:11;6.00;;;2.60;;
140;SDS011;65;48.778;9.160;2023-07-20T04:47:57;5.93;;;2.42;;
140;SDS011;65;48.778;9.160;2023-07-20T04:50:43;6.70;;;2.60;;
140;SDS011;65;48.778;9.160;2023-07-20T04:53:30;6.00;;;2.35;;
140;SDS011;65;48.778;9.160;2023-07-20T04:56:16;4.65;;;2.40;;
140;SDS011;65;48.778;9.160;2023-07-20T04:59:02;8.00;;;2.47;;
140;SDS011;65;48.778;9.160;2023-07-20T05:01:47;6.63;;;2.42;;
140;SDS011;65;48.778;9.160;2023-07-20T05:04:33;4.72;;;2.45;;
140;SDS011;65;48.778;9.160;2023-07-20T05:07:19;5.63;;;2.50;;
140;SDS011;65;48.778;9.160;2023-07-20T05:10:05;5.57;;;2.45;;
140;SDS011;65;48.778;9.160;2023-07-20T05:12:52;4.97;;;2.47;;
140;SDS011;65;48.778;9.160;2023-07-20T05:15:37;6.47;;;2.42;;
140;SDS011;65;48.778;9.160;2023-07-20T05:18:24;5.95;;;2.63;;
140;SDS011;65;48.778;9.160;2023-07-20T05:21:10;6.10;;;2.38;;
140;SDS011;65;48.778;9.160;2023-07-20T05:23:56;5.07;;;2.40;;
140;SDS011;65;48.778;9.160;2023-07-20T05:26:41;5.85;;;2.45;;
140;SDS011;65;48.778;9.160;2023-07-20T05:29:27;7.80;;;2.47;;
140;SDS011;65;48.778;9.160;2023-07-20T05:32:13;5.47;;;2.50;;
140;SDS011;65;48.778;9.160;2023-07-20T05:34:59;4.53;;;2.47;;
140;SDS011;65;48.778;9.160;2023-07-20T05:37:45;6.43;;;2.53;;
140;SDS011;65;48.778;9.160;2023-07-20T05:40:31;8.25;;;2.15;;
140;SDS011;65;48.778;9.160;2023-07-20T05:43:16;5.55;;;2.33;;
140;SDS011;65;48.778;9.160;2023-07-20T05:46:02;4.50;;;2.28;;
140;SDS011;65;48.778;9.160;2023-07-20T05:48:48;5.95;;;2.92;;
140;SDS011;65;48.778;9.160;2023-07-20T05:51:34;7.88;;;2.40;;
140;SDS011;65;48.778;9.160;2023-07-20T05:57:44;5.72;;;2.67;;
140;SDS011;65;48.778;9.160;2023-07-20T06:00:30;6.13;;;2.63;;
140;SDS011;65;48.778;9.160;2023-07-20T06:03:15;5.30;;;2.63;;
140;SDS011;65;48.778;9.160;2023-07-20T06:06:06;5.55;;;2.42;;
140;SDS011;65;48.778;9.160;2023-07-20T06:08:54;6.90;;;2.70;;
140;SDS011;65;48.778;9.160;2023-07-20T06:11:40;5.05;;;2.15;;
140;SDS011;65;48.778;9.160;2023-07-20T06:14:26;5.13;;;2.53;;
140;SDS011;65;48.778;9.160;2023-07-20T06:17:12;8.32;;;2.60;;
140;SDS011;65;48.778;9.160;2023-07-20T06:20:07;5.68;;;2.58;;
140;SDS011;65;48.778;9.160;2023-07-20T06:22:53;6.50;;;2.47;;
140;SDS011;65;48.778;9.160;2023-07-20T06:25:40;6.43;;;2.55;;
140;SDS011;65;48.778;9.160;2023-07-20T06:28:25;5.28;;;2.33;;
140;SDS011;65;48.778;9.160;2023-07-20T06:31:11;5.43;;;2.42;;
140;SDS011;65;48.778;9.160;2023-07-20T06:33:57;5.70;;;2.40;;
140;SDS011;65;48.778;9.160;2023-07-20T06:36:42;4.97;;;2.30;;
140;SDS011;65;48.778;9.160;2023-07-20T06:39:29;5.68;;;2.72;;
140;SDS011;65;48.778;9.160;2023-07-20T06:42:15;5.82;;;2.47;;
140;SDS011;65;48.778;9.160;2023-07-20T06:45:00;6.35;;;2.60;;
140;SDS011;65;48.778;9.160;2023-07-20T06:47:47;6.28;;;2.20;;
140;SDS011;65;48.778;9.160;2023-07-20T06:50:32;6.25;;;2.42;;
140;SDS011;65;48.778;9.160;2023-07-20T06:53:19;8.43;;;2.70;;
140;SDS011;65;48.778;9.160;2023-07-20T06:56:05;6.43;;;2.20;;
140;SDS011;65;48.778;9.160;2023-07-20T06:58:50;5.20;;;2.15;;
140;SDS011;65;48.778;9.160;2023-07-20T07:01:36;4.32;;;2.10;;
140;SDS011;65;48.778;9.160;2023-07-20T07:04:22;8.15;;;2.50;;
140;SDS011;65;48.778;9.160;2023-07-20T07:07:08;7.57;;;2.55;;
140;SDS011;65;48.778;9.160;2023-07-20T07:09:54;5.45;;;2.40;;
140;SDS011;65;48.778;9.160;2023-07-20T07:12:40;6.07;;;2.25;;
140;SDS011;65;48.778;9.160;2023-07-20T07:15:26;6.15;;;2.30;;
140;SDS011;65;48.778;9.160;2023-07-20T07:18:12;5.90;;;2.53;;
140;SDS011;65;48.778;9.160;2023-07-20T07:20:58;5.97;;;2.50;;
140;SDS011;65;48.778;9.160;2023-07-20T07:23:49;4.88;;;2.25;;
140;SDS011;65;48.778;9.160;2023-07-20T07:26:36;5.82;;;2.50;;
140;SDS011;65;48.778;9.160;2023-07-20T07:29:22;4.10;;;2.15;;
140;SDS011;65;48.778;9.160;2023-07-20T07:32:08;8.05;;;2.58;;
140;SDS011;65;48.778;9.160;2023-07-20T07:34:55;7.47;;;2.20;;
140;SDS011;65;48.778;9.160;2023-07-20T07:37:43;7.70;;;2.40;;
140;SDS011;65;48.778;9.160;2023-07-20T07:40:30;5.72;;;2.38;;
140;SDS011;65;48.778;9.160;2023-07-20T07:43:16;6.55;;;2.50;;
140;SDS011;65;48.778;9.160;2023-07-20T07:46:02;5.85;;;2.22;;
140;SDS011;65;48.778;9.160;2023-07-20T07:48:47;6.45;;;2.42;;
140;SDS011;65;48.778;9.160;2023-07-20T07:51:33;5.85;;;2.20;;
140;SDS011;65;48.778;9.160;2023-07-20T07:54:19;6.80;;;2.42;;
140;SDS011;65;48.778;9.160;2023-07-20T07:57:05;5.97;;;2.40;;
140;SDS011;65;48.778;9.160;2023-07-20T07:59:51;6.13;;;2.33;;
140;SDS011;65;48.778;9.160;2023-07-20T08:02:37;3.80;;;2.20;;
140;SDS011;65;48.778;9.160;2023-07-20T08:05:22;4.82;;;2.33;;
140;SDS011;65;48.778;9.160;2023-07-20T08:08:08;4.10;;;2.10;;
140;SDS011;65;48.778;9.160;2023-07-20T08:10:54;4.35;;;2.10;;
140;SDS011;65;48.778;9.160;2023-07-20T08:13:52;3.13;;;1.90;;
140;SDS011;65;48.778;9.160;2023-07-20T08:16:56;7.50;;;2.50;;
140;SDS011;65;48.778;9.160;2023-07-20T08:19:45;6.30;;;3.17;;
140;SDS011;65;48.778;9.160;2023-07-20T08:22:32;5.88;;;2.33;;
140;SDS011;65;48.778;9.160;2023-07-20T08:25:17;5.38;;;2.20;;
140;SDS011;65;48.778;9.160;2023-07-20T08:28:03;7.95;;;2.72;;
140;SDS011;65;48.778;9.160;2023-07-20T08:30:49;5.68;;;2.38;;
140;SDS011;65;48.778;9.160;2023-07-20T08:33:35;5.20;;;2.40;;
140;SDS011;65;48.778;9.160;2023-07-20T08:36:21;5.25;;;2.15;;
140;SDS011;65;48.778;9.160;2023-07-20T08:39:07;5.25;;;2.50;;
140;SDS011;65;48.778;9.160;2023-07-20T08:41:53;4.88;;;2.45;;
140;SDS011;65;48.778;9.160;2023-07-20T08:44:41;3.92;;;2.25;;
140;SDS011;65;48.778;9.160;2023-07-20T08:47:28;4.95;;;2.20;;
140;SDS011;65;48.778;9.160;2023-07-20T08:50:14;3.90;;;2.10;;
140;SDS011;65;48.778;9.160;2023-07-20T08:53:01;6.57;;;2.38;;
140;SDS011;65;48.778;9.160;2023-07-20T08:55:52;6.32;;;2.20;;
140;SDS011;65;48.778;9.160;2023-07-20T08:58:38;6.25;;;2.20;;
140;SDS011;65;48.778;9.160;2023-07-20T09:01:27;5.40;;;2.15;;
140;SDS011;65;48.778;9.160;2023-07-20T09:04:14;7.78;;;2.90;;
140;SDS011;65;48.778;9.160;2023-07-20T09:07:01;3.92;;;2.08;;
140;SDS011;65;48.778;9.160;2023-07-20T09:09:47;5.57;;;2.05;;
140;SDS011;65;48.778;9.160;2023-07-20T09:12:38;5.38;;;2.10;;
140;SDS011;65;48.778;9.160;2023-07-20T09:15:25;5.00;;;2.25;;
140;SDS011;65;48.778;9.160;2023-07-20T09:18:10;5.30;;;2.50;;
140;SDS011;65;48.778;9.160;2023-07-20T09:21:03;4.53;;;2.00;;
140;SDS011;65;48.778;9.160;2023-07-20T09:23:51;4.97;;;2.15;;
140;SDS011;65;48.778;9.160;2023-07-20T09:26:43;2.63;;;1.67;;
140;SDS011;65;48.778;9.160;2023-07-20T09:29:29;5.32;;;1.95;;
140;SDS011;65;48.778;9.160;2023-07-20T09:32:19;8.25;;;2.20;;
140;SDS011;65;48.778;9.160;2023-07-20T09:35:06;5.75;;;2.47;;
140;SDS011;65;48.778;9.160;2023-07-20T09:37:57;4.38;;;2.10;;
140;SDS011;65;48.778;9.160;2023-07-20T09:40:44;5.30;;;2.38;;
140;SDS011;65;48.778;9.160;2023-07-20T09:43:30;4.47;;;2.17;;
140;SDS011;65;48.778;9.160;2023-07-20T09:46:17;6.10;;;2.33;;
140;SDS011;65;48.778;9.160;2023-07-20T09:49:08;5.00;;;2.35;;
140;SDS011;65;48.778;9.160;2023-07-20T09:51:54;3.20;;;1.80;;
140;SDS011;65;48.778;9.160;2023-07-20T09:54:44;4.68;;;1.92;;
140;SDS011;65;48.778;9.160;2023-07-20T09:57:32;4.55;;;2.10;;
140;SDS011;65;48.778;9.160;2023-07-20T10:00:18;4.30;;;2.20;;
140;SDS011;65;48.778;9.160;2023-07-20T10:03:05;4.50;;;2.15;;
140;SDS011;65;48.778;9.160;2023-07-20T10:09:34;4.43;;;2.13;;
140;SDS011;65;48.778;9.160;2023-07-20T10:12:24;4.57;;;1.80;;
140;SDS011;65;48.778;9.160;2023-07-20T10:21:23;3.53;;;1.80;;
140;SDS011;65;48.778;9.160;2023-07-20T10:24:10;4.53;;;1.88;;
140;SDS011;65;48.778;9.160;2023-07-20T10:26:57;3.90;;;1.90;;
140;SDS011;65;48.778;9.160;2023-07-20T10:29:43;4.55;;;1.70;;
140;SDS011;65;48.778;9.160;2023-07-20T10:32:29;4.85;;;1.90;;
140;SDS011;65;48.778;9.160;2023-07-20T10:35:16;3.40;;;1.77;;
140;SDS011;65;48.778;9.160;2023-07-20T10:38:03;3.13;;;1.77;;
140;SDS011;65;48.778;9.160;2023-07-20T10:40:55;3.65;;;1.70;;
140;SDS011;65;48.778;9.160;2023-07-20T10:43:44;3.25;;;1.80;;
140;SDS011;65;48.778;9.160;2023-07-20T10:46:44;4.28;;;2.05;;
140;SDS011;65;48.778;9.160;2023-07-20T10:49:34;4.07;;;1.70;;
140;SDS011;65;48.778;9.160;2023-07-20T10:52:20;4.80;;;1.70;;
140;SDS011;65;48.778;9.160;2023-07-20T10:55:10;3.55;;;1.83;;
140;SDS011;65;48.778;9.160;2023-07-20T10:58:07;5.25;;;1.92;;
140;SDS011;65;48.778;9.160;2023-07-20T11:00:57;2.78;;;1.60;;
140;SDS011;65;48.778;9.160;2023-07-20T11:03:48;3.80;;;1.90;;
140;SDS011;65;48.778;9.160;2023-07-20T11:06:42;5.30;;;1.85;;
140;SDS011;65;48.778;9.160;2023-07-20T11:09:32;2.60;;;1.63;;
140;SDS011;65;48.778;9.160;2023-07-20T11:12:20;3.85;;;1.88;;
140;SDS011;65;48.778;9.160;2023-07-20T11:15:06;2.75;;;1.85;;
140;SDS011;65;48.778;9.160;2023-07-20T11:17:52;4.57;;;1.83;;
140;SDS011;65;48.778;9.160;2023-07-20T11:20:55;2.95;;;1.70;;
140;SDS011;65;48.778;9.160;2023-07-20T11:23:42;4.78;;;1.70;;
140;SDS011;65;48.778;9.160;2023-07-20T11:26:28;3.83;;;1.75;;
140;SDS011;65;48.778;9.160;2023-07-20T11:29:15;4.93;;;1.50;;
140;SDS011;65;48.778;9.160;2023-07-20T11:32:02;7.80;;;1.70;;
140;SDS011;65;48.778;9.160;2023-07-20T11:34:49;3.20;;;1.77;;
140;SDS011;65;48.778;9.160;2023-07-20T11:37:35;3.25;;;1.80;;
140;SDS011;65;48.778;9.160;2023-07-20T11:40:21;4.43;;;1.92;;
140;SDS011;65;48.778;9.160;2023-07-20T11:43:08;3.15;;;1.63;;
140;SDS011;65;48.778;9.160;2023-07-20T11:45:54;2.85;;;1.80;;
140;SDS011;65;48.778;9.160;2023-07-20T11:48:40;2.55;;;1.80;;
140;SDS011;65;48.778;9.160;2023-07-20T11:51:27;3.78;;;1.75;;
140;SDS011;65;48.778;9.160;2023-07-20T11:54:13;4.05;;;1.75;;
140;SDS011;65;48.778;9.160;2023-07-20T11:57:02;3.35;;;1.70;;
140;SDS011;65;48.778;9.160;2023-07-20T12:00:00;4.07;;;1.80;;
140;SDS011;65;48.778;9.160;2023-07-20T12:02:53;3.75;;;1.80;;
140;SDS011;65;48.778;9.160;2023-07-20T12:05:39;2.65;;;1.65;;
140;SDS011;65;48.778;9.160;2023-07-20T12:08:25;3.20;;;1.70;;
140;SDS011;65;48.778;9.160;2023-07-20T12:11:11;1.75;;;1.55;;
140;SDS011;65;48.778;9.160;2023-07-20T12:13:57;6.13;;;1.80;;
140;SDS011;65;48.778;9.160;2023-07-20T12:16:43;6.03;;;1.80;;
140;SDS011;65;48.778;9.160;2023-07-20T12:19:29;3.83;;;1.77;;
140;SDS011;65;48.778;9.160;2023-07-20T12:22:15;2.65;;;1.75;;
140;SDS011;65;48.778;9.160;2023-07-20T12:25:01;4.53;;;1.50;;
140;SDS011;65;48.778;9.160;2023-07-20T12:27:51;4.10;;;1.85;;
140;SDS011;65;48.778;9.160;2023-07-20T12:30:37;2.50;;;1.60;;
140;SDS011;65;48.778;9.160;2023-07-20T12:33:23;4.70;;;1.50;;
140;SDS011;65;48.778;9.160;2023-07-20T12:36:09;5.85;;;1.90;;
140;SDS011;65;48.778;9.160;2023-07-20T12:38:56;3.35;;;1.70;;
140;SDS011;65;48.778;9.160;2023-07-20T12:41:41;4.10;;;1.90;;
140;SDS011;65;48.778;9.160;2023-07-20T12:44:27;2.55;;;1.60;;
140;SDS011;65;48.778;9.160;2023-07-20T12:47:13;3.95;;;1.80;;
140;SDS011;65;48.778;9.160;2023-07-20T12:49:59;3.13;;;1.80;;
140;SDS011;65;48.778;9.160;2023-07-20T12:52:45;2.20;;;1.60;;
140;SDS011;65;48.778;9.160;2023-07-20T12:55:31;3.00;;;1.70;;
140;SDS011;65;48.778;9.160;2023-07-20T12:58:17;2.72;;;1.52;;
140;SDS011;65;48.778;9.160;2023-07-20T13:01:03;3.35;;;1.92;;
140;SDS011;65;48.778;9.160;2023-07-20T13:03:49;2.75;;;1.60;;
140;SDS011;65;48.778;9.160;2023-07-20T13:06:35;2.50;;;1.73;;
140;SDS011;65;48.778;9.160;2023-07-20T13:09:21;2.15;;;1.63;;
140;SDS011;65;48.778;9.160;2023-07-20T13:12:07;4.13;;;1.88;;
140;SDS011;65;48.778;9.160;2023-07-20T13:14:54;3.40;;;1.70;;
140;SDS011;65;48.778;9.160;2023-07-20T13:17:41;3.35;;;1.80;;
140;SDS011;65;48.778;9.160;2023-07-20T13:20:32;5.22;;;1.80;;
140;SDS011;65;48.778;9.160;2023-07-20T13:23:18;4.50;;;1.75;;
140;SDS011;65;48.778;9.160;2023-07-20T13:26:05;5.63;;;1.90;;
140;SDS011;65;48.778;9.160;2023-07-20T13:28:51;2.85;;;1.63;;
140;SDS011;65;48.778;9.160;2023-07-20T13:31:36;3.17;;;1.80;;
140;SDS011;65;48.778;9.160;2023-07-20T13:34:22;3.70;;;1.77;;
140;SDS011;65;48.778;9.160;2023-07-20T13:37:09;3.22;;;1.80;;
140;SDS011;65;48.778;9.160;2023-07-20T13:39:55;3.42;;;1.70;;
140;SDS011;65;48.778;9.160;2023-07-20T13:42:41;4.20;;;1.70;;
140;SDS011;65;48.778;9.160;2023-07-20T13:45:27;3.22;;;1.70;;
140;SDS011;65;48.778;9.160;2023-07-20T13:48:12;2.88;;;1.70;;
140;SDS011;65;48.778;9.160;2023-07-20T13:50:59;2.72;;;1.60;;
140;SDS011;65;48.778;9.160;2023-07-20T13:53:46;2.75;;;1.70;;
140;SDS011;65;48.778;9.160;2023-07-20T13:56:32;3.72;;;1.67;;
140;SDS011;65;48.778;9.160;2023-07-20T13:59:18;3.47;;;1.80;;
140;SDS011;65;48.778;9.160;2023-07-20T14:02:05;3.65;;;1.48;;
140;SDS011;65;48.778;9.160;2023-07-20T14:04:50;2.55;;;1.55;;
140;SDS011;65;48.778;9.160;2023-07-20T14:07:36;6.75;;;1.80;;
140;SDS011;65;48.778;9.160;2023-07-20T14:10:23;3.20;;;1.60;;
140;SDS011;65;48.778;9.160;2023-07-20T14:13:09;4.40;;;1.60;;
140;SDS011;65;48.778;9.160;2023-07-20T14:15:55;2.47;;;1.60;;
140;SDS011;65;48.778;9.160;2023-07-20T14:18:41;11.75;;;1.80;;
140;SDS011;65;48.778;9.160;2023-07-20T14:21:27;3.92;;;1.77;;
140;SDS011;65;48.778;9.160;2023-07-20T14:24:14;4.63;;;1.80;;
140;SDS011;65;48.778;9.160;2023-07-20T14:27:00;3.00;;;1.80;;
140;SDS011;65;48.778;9.160;2023-07-20T14:29:46;2.67;;;1.55;;
140;SDS011;65;48.778;9.160;2023-07-20T14:32:32;2.95;;;1.55;;
140;SDS011;65;48.778;9.160;2023-07-20T14:35:19;2.58;;;1.75;;
140;SDS011;65;48.778;9.160;2023-07-20T14:38:05;3.53;;;1.73;;
140;SDS011;65;48.778;9.160;2023-07-20T14:40:51;3.20;;;1.60;;
140;SDS011;65;48.778;9.160;2023-07-20T14:43:36;3.92;;;1.80;;
140;SDS011;65;48.778;9.160;2023-07-20T14:46:23;3.30;;;1.85;;
140;SDS011;65;48.778;9.160;2023-07-20T14:49:09;4.25;;;1.80;;
140;SDS011;65;48.778;9.160;2023-07-20T14:51:56;3.42;;;1.70;;
140;SDS011;65;48.778;9.160;2023-07-20T14:54:41;4.53;;;1.95;;
140;SDS011;65;48.778;9.160;2023-07-20T14:57:27;5.38;;;1.90;;
140;SDS011;65;48.778;9.160;2023-07-20T15:00:13;3.95;;;1.77;;
140;SDS011;65;48.778;9.160;2023-07-20T15:03:00;2.78;;;1.70;;
140;SDS011;65;48.778;9.160;2023-07-20T15:05:45;2.70;;;1.70;;
140;SDS011;65;48.778;9.160;2023-07-20T15:08:31;3.15;;;1.80;;
140;SDS011;65;48.778;9.160;2023-07-20T15:11:17;3.17;;;1.80;;
140;SDS011;65;48.778;9.160;2023-07-20T15:14:03;2.47;;;1.67;;
140;SDS011;65;48.778;9.160;2023-07-20T15:16:49;3.00;;;1.70;;
140;SDS011;65;48.778;9.160;2023-07-20T15:19:34;2.70;;;1.88;;
140;SDS011;65;48.778;9.160;2023-07-20T15:22:21;3.42;;;1.67;;
140;SDS011;65;48.778;9.160;2023-07-20T15:25:07;4.55;;;1.90;;
140;SDS011;65;48.778;9.160;2023-07-20T15:27:54;2.88;;;1.65;;
140;SDS011;65;48.778;9.160;2023-07-20T15:30:40;5.18;;;2.10;;
140;SDS011;65;48.778;9.160;2023-07-20T15:33:26;2.70;;;1.75;;
140;SDS011;65;48.778;9.160;2023-07-20T15:36:12;2.83;;;1.77;;
140;SDS011;65;48.778;9.160;2023-07-20T15:38:58;5.25;;;1.80;;
140;SDS011;65;48.778;9.160;2023-07-20T15:41:43;4.32;;;1.80;;
140;SDS011;65;48.778;9.160;2023-07-20T15:44:29;2.70;;;1.40;;
140;SDS011;65;48.778;9.160;2023-07-20T15:47:15;3.13;;;1.77;;
140;SDS011;65;48.778;9.160;2023-07-20T15:50:01;3.97;;;1.90;;
140;SDS011;65;48.778;9.160;2023-07-20T15:52:48;7.38;;;1.80;;
140;SDS011;65;48.778;9.160;2023-07-20T15:55:34;4.50;;;1.63;;
140;SDS011;65;48.778;9.160;2023-07-20T15:58:23;3.53;;;1.80;;
140;SDS011;65;48.778;9.160;2023-07-20T16:01:08;2.85;;;1.52;;
140;SDS011;65;48.778;9.160;2023-07-20T16:03:59;3.03;;;2.05;;
140;SDS011;65;48.778;9.160;2023-07-20T16:06:46;4.50;;;1.60;;
140;SDS011;65;48.778;9.160;2023-07-20T16:09:31;4.93;;;2.40;;
140;SDS011;65;48.778;9.160;2023-07-20T16:12:18;3.10;;;1.88;;
140;SDS011;65;48.778;9.160;2023-07-20T16:15:04;2.63;;;1.70;;
140;SDS011;65;48.778;9.160;2023-07-20T16:17:51;2.55;;;1.67;;
140;SDS011;65;48.778;9.160;2023-07-20T16:20:37;3.78;;;1.60;;
140;SDS011;65;48.778;9.160;2023-07-20T16:23:23;4.63;;;1.85;;
140;SDS011;65;48.778;9.160;2023-07-20T16:29:28;3.25;;;1.83;;
140;SDS011;65;48.778;9.160;2023-07-20T16:32:14;2.40;;;1.85;;
140;SDS011;65;48.778;9.160;2023-07-20T16:34:59;2.75;;;1.55;;
140;SDS011;65;48.778;9.160;2023-07-20T16:37:46;4.60;;;2.00;;
140;SDS011;65;48.778;9.160;2023-07-20T16:40:31;3.75;;;1.80;;
140;SDS011;65;48.778;9.160;2023-07-20T16:43:17;2.38;;;1.60;;
140;SDS011;65;48.778;9.160;2023-07-20T16:46:06;3.25;;;1.70;;
140;SDS011;65;48.778;9.160;2023-07-20T16:48:53;3.55;;;1.50;;
140;SDS011;65;48.778;9.160;2023-07-20T16:51:39;3.70;;;1.88;;
140;SDS011;65;48.778;9.160;2023-07-20T16:54:25;3.10;;;1.63;;
140;SDS011;65;48.778;9.160;2023-07-20T16:57:11;3.25;;;1.92;;
140;SDS011;65;48.778;9.160;2023-07-20T16:59:57;2.15;;;1.42;;
140;SDS011;65;48.778;9.160;2023-07-20T17:02:42;3.30;;;1.55;;
140;SDS011;65;48.778;9.160;2023-07-20T17:05:28;2.13;;;1.50;;
140;SDS011;65;48.778;9.160;2023-07-20T17:08:14;3.85;;;1.83;;
140;SDS011;65;48.778;9.160;2023-07-20T17:11:01;2.38;;;1.75;;
140;SDS011;65;48.778;9.160;2023-07-20T17:13:47;4.93;;;1.63;;
140;SDS011;65;48.778;9.160;2023-07-20T17:16:33;2.38;;;1.60;;
140;SDS011;65;48.778;9.160;2023-07-20T17:19:19;3.38;;;1.90;;
140;SDS011;65;48.778;9.160;2023-07-20T17:22:04;4.35;;;2.20;;
140;SDS011;65;48.778;9.160;2023-07-20T17:24:50;4.18;;;2.30;;
140;SDS011;65;48.778;9.160;2023-07-20T17:27:36;7.70;;;4.53;;
140;SDS011;65;48.778;9.160;2023-07-20T17:30:22;3.33;;;1.92;;
140;SDS011;65;48.778;9.160;2023-07-20T17:33:07;5.90;;;3.10;;
140;SDS011;65;48.778;9.160;2023-07-20T17:35:54;3.95;;;2.42;;
140;SDS011;65;48.778;9.160;2023-07-20T17:38:39;3.08;;;2.10;;
140;SDS011;65;48.778;9.160;2023-07-20T17:41:25;2.63;;;1.67;;
140;SDS011;65;48.778;9.160;2023-07-20T17:44:11;2.47;;;1.52;;
140;SDS011;65;48.778;9.160;2023-07-20T17:46:57;2.58;;;1.80;;
140;SDS011;65;48.778;9.160;2023-07-20T17:49:42;2.97;;;1.63;;
140;SDS011;65;48.778;9.160;2023-07-20T17:52:28;4.80;;;1.90;;
140;SDS011;65;48.778;9.160;2023-07-20T17:55:14;4.28;;;1.98;;
140;SDS011;65;48.778;9.160;2023-07-20T17:57:59;4.95;;;1.58;;
140;SDS011;65;48.778;9.160;2023-07-20T18:00:45;4.43;;;1.63;;
140;SDS011;65;48.778;9.160;2023-07-20T18:03:31;3.70;;;1.77;;
140;SDS011;65;48.778;9.160;2023-07-20T18:06:17;3.13;;;1.60;;
140;SDS011;65;48.778;9.160;2023-07-20T18:09:03;4.22;;;1.98;;
140;SDS011;65;48.778;9.160;2023-07-20T18:11:48;7.60;;;4.45;;
140;SDS011;65;48.778;9.160;2023-07-20T18:14:35;9.15;;;4.00;;
140;SDS011;65;48.778;9.160;2023-07-20T18:17:21;6.00;;;2.40;;
140;SDS011;65;48.778;9.160;2023-07-20T18:20:07;4.57;;;2.00;;
140;SDS011;65;48.778;9.160;2023-07-20T18:22:54;6.28;;;2.03;;
140;SDS011;65;48.778;9.160;2023-07-20T18:25:43;3.78;;;2.03;;
140;SDS011;65;48.778;9.160;2023-07-20T18:28:30;3.22;;;1.83;;
140;SDS011;65;48.778;9.160;2023-07-20T18:31:16;4.30;;;2.22;;
140;SDS011;65;48.778;9.160;2023-07-20T18:34:01;3.53;;;2.00;;